Time;durP1;ratioP1;P1;durP2;ratioP2;P2;SDS_P1;SDS_P2;PMS_P1;PMS_P2;Temp;Humidity;BMP_temperature;BMP_pressure;BME280_temperature;BME280_humidity;BME280_pressure;Samples;Min_cycle;Max_cycle;Signal;HPM_P1;HPM_P2
2021/08/06 00:01:31;;;;;;;11.88;7.22;;;;;;;15.96;nan;100833.94;6241315;23;20008;-84
2021/08/06 00:03:56;;;;;;;10.43;7.63;;;;;;;15.89;nan;100835.38;6213220;23;19996;-84
2021/08/06 00:06:27;;;;;;;11.80;7.88;;;;;;;15.92;nan;100840.22;6214912;23;20012;-84
2021/08/06 00:08:53;;;;;;;11.43;8.27;;;;;;;15.89;nan;100833.47;6240358;22;20179;-85
2021/08/06 00:11:18;;;;;;;11.45;7.95;;;;;;;15.89;nan;100838.88;6238884;22;20082;-83
2021/08/06 00:13:44;;;;;;;11.73;7.72;;;;;;;15.82;nan;100826.78;6239819;23;20392;-85
2021/08/06 00:16:10;;;;;;;14.77;7.72;;;;;;;15.86;nan;100827.84;6235357;23;20529;-84
2021/08/06 00:18:35;;;;;;;12.15;6.63;;;;;;;15.87;nan;100832.94;6237370;23;20008;-84
2021/08/06 00:21:01;;;;;;;12.82;7.03;;;;;;;15.85;nan;100827.03;6236327;22;20004;-84
2021/08/06 00:23:26;;;;;;;10.52;7.10;;;;;;;15.82;nan;100821.38;6237288;23;20026;-84
2021/08/06 00:25:51;;;;;;;10.57;7.43;;;;;;;15.81;nan;100825.97;6235856;23;20008;-84
2021/08/06 00:28:17;;;;;;;9.07;7.15;;;;;;;15.79;nan;100824.63;6238026;23;20011;-84
2021/08/06 00:30:42;;;;;;;7.97;7.15;;;;;;;15.78;nan;100826.50;6238714;22;20004;-84
2021/08/06 00:33:08;;;;;;;11.65;7.35;;;;;;;15.80;nan;100826.22;6236653;23;20004;-85
2021/08/06 00:35:34;;;;;;;8.25;6.45;;;;;;;15.73;nan;100823.84;6237675;23;20032;-85
2021/08/06 00:37:59;;;;;;;9.82;7.95;;;;;;;15.74;nan;100820.06;6239326;22;20007;-85
2021/08/06 00:40:25;;;;;;;8.77;7.32;;;;;;;15.74;nan;100821.97;6237095;22;20012;-84
2021/08/06 00:42:51;;;;;;;10.73;7.88;;;;;;;15.69;nan;100822.81;6237529;23;20408;-84
2021/08/06 00:45:17;;;;;;;9.30;7.78;;;;;;;15.67;nan;100827.69;6238946;23;20149;-86
2021/08/06 00:47:43;;;;;;;11.32;8.02;;;;;;;15.66;nan;100826.06;6239156;23;20016;-84
2021/08/06 00:50:11;;;;;;;9.70;7.30;;;;;;;15.64;nan;100818.25;6237760;22;20008;-85
2021/08/06 00:52:37;;;;;;;10.65;7.32;;;;;;;15.59;nan;100820.16;6235696;23;20027;-84
2021/08/06 00:55:04;;;;;;;10.10;7.78;;;;;;;15.59;nan;100822.84;6238292;23;20032;-84
2021/08/06 00:57:33;;;;;;;9.45;7.95;;;;;;;15.60;nan;100829.88;6237223;23;20004;-83
2021/08/06 00:59:58;;;;;;;8.38;7.47;;;;;;;15.59;nan;100822.84;6237897;22;20008;-83
2021/08/06 01:03:01;;;;;;;10.35;7.65;;;;;;;15.56;nan;100828.78;6237069;23;19996;-83
2021/08/06 01:05:34;;;;;;;8.52;7.63;;;;;;;15.53;nan;100823.97;6234090;23;20463;-84
2021/08/06 01:08:12;;;;;;;10.73;8.48;;;;;;;15.48;nan;100816.69;6238862;23;20103;-84
2021/08/06 01:10:45;;;;;;;8.57;7.63;;;;;;;15.52;nan;100817.75;6240659;22;20462;-84
2021/08/06 01:13:14;;;;;;;13.05;8.77;;;;;;;15.47;nan;100808.88;6239167;23;20075;-84
2021/08/06 01:15:42;;;;;;;10.18;7.40;;;;;;;15.44;nan;100810.25;6240597;23;20047;-84
2021/08/06 01:18:12;;;;;;;8.35;7.45;;;;;;;15.40;nan;100818.06;6239746;23;20048;-85
2021/08/06 01:20:42;;;;;;;8.77;6.85;;;;;;;15.41;nan;100814.28;6239644;22;20004;-86
2021/08/06 01:23:16;;;;;;;8.80;7.90;;;;;;;15.36;nan;100814.31;6239178;23;20053;-85
2021/08/06 01:25:46;;;;;;;9.75;8.00;;;;;;;15.34;nan;100815.69;6239646;23;20352;-85
2021/08/06 01:28:15;;;;;;;8.20;7.30;;;;;;;15.32;nan;100818.66;6239358;23;20011;-85
2021/08/06 01:30:42;;;;;;;9.23;7.57;;;;;;;15.34;nan;100819.19;6239318;22;20011;-85
2021/08/06 01:33:08;;;;;;;10.05;8.27;;;;;;;15.34;nan;100815.69;6240979;22;20003;-84
2021/08/06 01:35:34;;;;;;;12.52;7.97;;;;;;;15.32;nan;100815.97;6239510;23;20004;-84
2021/08/06 01:37:59;;;;;;;8.20;7.40;;;;;;;15.32;nan;100813.28;6239703;23;20096;-84
2021/08/06 01:40:25;;;;;;;10.25;7.80;;;;;;;15.30;nan;100811.94;6239717;22;20031;-84
2021/08/06 01:43:30;;;;;;;9.80;8.00;;;;;;;15.20;nan;100815.47;6238583;23;20007;-84
2021/08/06 01:46:12;;;;;;;10.38;7.80;;;;;;;15.22;nan;100807.91;6239835;23;20015;-84
2021/08/06 01:48:45;;;;;;;9.57;8.40;;;;;;;15.25;nan;100814.63;6237739;23;20012;-85
2021/08/06 01:51:12;;;;;;;10.55;8.27;;;;;;;15.25;nan;100812.75;6237668;22;20007;-84
2021/08/06 01:53:43;;;;;;;11.27;8.10;;;;;;;15.18;nan;100812.25;6239842;23;20432;-84
2021/08/06 01:56:12;;;;;;;12.63;8.52;;;;;;;15.15;nan;100802.00;6238349;23;20360;-84
2021/08/06 01:58:39;;;;;;;15.50;8.43;;;;;;;15.10;nan;100804.75;6240568;23;20035;-85
2021/08/06 02:01:05;;;;;;;11.50;8.88;;;;;;;15.09;nan;100803.13;6238406;22;20083;-85
2021/08/06 02:03:31;;;;;;;11.57;8.45;;;;;;;15.05;nan;100805.56;6238163;23;20336;-84
2021/08/06 02:05:57;;;;;;;10.77;8.43;;;;;;;15.07;nan;100795.28;6239454;22;20444;-85
2021/08/06 02:08:23;;;;;;;16.20;9.77;;;;;;;15.04;nan;100795.03;6244311;22;20007;-85
2021/08/06 02:10:49;;;;;;;11.93;8.82;;;;;;;15.06;nan;100792.88;6242511;22;20098;-85
2021/08/06 02:13:14;;;;;;;12.55;8.90;;;;;;;15.05;nan;100788.56;6243166;22;20599;-85
2021/08/06 02:15:41;;;;;;;12.63;10.05;;;;;;;15.02;nan;100789.91;6250338;22;20008;-85
2021/08/06 02:18:10;;;;;;;13.02;9.85;;;;;;;14.99;nan;100787.78;6243910;22;20006;-84
2021/08/06 02:20:37;;;;;;;10.88;9.73;;;;;;;14.99;nan;100786.97;6244419;22;20011;-85
2021/08/06 02:23:06;;;;;;;11.57;9.93;;;;;;;14.98;nan;100786.16;6243510;22;20006;-85
2021/08/06 02:25:33;;;;;;;14.02;9.30;;;;;;;14.94;nan;100787.81;6244628;22;20011;-85
2021/08/06 02:28:00;;;;;;;12.00;10.15;;;;;;;14.91;nan;100785.66;6243493;22;20810;-85
2021/08/06 02:30:29;;;;;;;14.80;10.57;;;;;;;14.88;nan;100783.50;6243318;22;20035;-84
2021/08/06 02:32:56;;;;;;;12.80;8.73;;;;;;;14.89;nan;100774.31;6243365;22;19995;-84
2021/08/06 02:35:21;;;;;;;12.50;9.38;;;;;;;14.87;nan;100783.78;6244288;22;20008;-85
2021/08/06 02:37:49;;;;;;;10.40;8.23;;;;;;;14.84;nan;100778.94;6243410;22;20007;-84
2021/08/06 02:40:15;;;;;;;11.50;8.82;;;;;;;14.79;nan;100775.19;6243373;22;20015;-84
2021/08/06 02:42:41;;;;;;;11.70;8.88;;;;;;;14.75;nan;100779.50;6243300;22;19999;-84
2021/08/06 02:45:07;;;;;;;9.75;8.10;;;;;;;14.72;nan;100777.38;6243459;22;20008;-84
2021/08/06 02:47:32;;;;;;;10.65;8.38;;;;;;;14.75;nan;100774.13;6242500;22;20090;-84
2021/08/06 02:49:58;;;;;;;11.18;8.82;;;;;;;14.77;nan;100769.25;6244722;22;20031;-84
2021/08/06 02:52:24;;;;;;;9.32;8.32;;;;;;;14.75;nan;100776.00;6244313;22;20007;-84
2021/08/06 02:54:49;;;;;;;12.60;9.15;;;;;;;14.74;nan;100780.59;6243796;22;20114;-84
2021/08/06 02:57:15;;;;;;;10.65;8.57;;;;;;;14.73;nan;100765.50;6244115;22;20068;-84
2021/08/06 02:59:40;;;;;;;12.95;8.25;;;;;;;14.71;nan;100769.53;6270733;22;20027;-84
2021/08/06 03:02:06;;;;;;;11.65;8.93;;;;;;;14.68;nan;100773.59;6270077;22;20000;-84
2021/08/06 03:04:31;;;;;;;10.85;8.93;;;;;;;14.68;nan;100765.50;6244574;22;20444;-84
2021/08/06 03:06:57;;;;;;;10.90;8.63;;;;;;;14.65;nan;100766.03;6244275;22;20030;-85
2021/08/06 03:09:22;;;;;;;11.75;9.48;;;;;;;14.63;nan;100770.91;6243657;22;20007;-85
2021/08/06 03:11:48;;;;;;;11.00;9.48;;;;;;;14.61;nan;100766.88;6243764;22;20023;-84
2021/08/06 03:14:14;;;;;;;12.02;9.57;;;;;;;14.61;nan;100764.19;6243854;22;20015;-87
2021/08/06 03:16:39;;;;;;;11.63;9.00;;;;;;;14.58;nan;100764.72;6244120;22;20048;-84
2021/08/06 03:19:05;;;;;;;10.98;8.63;;;;;;;14.58;nan;100760.16;6243978;22;20023;-84
2021/08/06 03:21:30;;;;;;;10.43;8.82;;;;;;;14.60;nan;100767.97;6244258;22;20329;-85
2021/08/06 03:23:56;;;;;;;18.75;8.05;;;;;;;14.58;nan;100767.44;6243371;22;20007;-84
2021/08/06 03:26:21;;;;;;;12.43;8.38;;;;;;;14.53;nan;100768.22;6271324;22;20797;-84
2021/08/06 03:28:47;;;;;;;11.32;9.25;;;;;;;14.51;nan;100759.59;6244090;22;20390;-84
2021/08/06 03:31:12;;;;;;;9.52;8.40;;;;;;;14.51;nan;100762.31;6243330;22;20077;-84
2021/08/06 03:33:38;;;;;;;10.50;8.38;;;;;;;14.51;nan;100762.31;6243556;22;20436;-84
2021/08/06 03:36:04;;;;;;;9.43;8.43;;;;;;;14.50;nan;100758.81;6244643;22;20010;-84
2021/08/06 03:38:30;;;;;;;12.48;9.68;;;;;;;14.51;nan;100767.69;6246287;22;20014;-84
2021/08/06 03:40:55;;;;;;;10.48;8.32;;;;;;;14.48;nan;100763.66;6245480;22;20011;-84
2021/08/06 03:43:22;;;;;;;9.98;8.52;;;;;;;14.48;nan;100768.25;6244630;22;19995;-85
2021/08/06 03:45:48;;;;;;;9.25;8.27;;;;;;;14.48;nan;100763.66;6245788;22;20026;-84
2021/08/06 03:48:13;;;;;;;10.52;8.88;;;;;;;14.48;nan;100760.97;6272714;22;20018;-85
2021/08/06 03:50:39;;;;;;;13.25;9.00;;;;;;;14.48;nan;100766.34;6273188;22;20007;-85
2021/08/06 03:53:05;;;;;;;11.38;8.38;;;;;;;14.46;nan;100762.31;6245653;22;20010;-84
2021/08/06 03:55:31;;;;;;;12.68;9.32;;;;;;;14.47;nan;100763.94;6273019;22;20354;-84
2021/08/06 03:57:58;;;;;;;10.02;8.45;;;;;;;14.47;nan;100763.94;6244155;22;20003;-84
2021/08/06 04:00:30;;;;;;;9.38;8.30;;;;;;;14.47;nan;100764.75;6245698;22;20458;-84
2021/08/06 04:02:56;;;;;;;9.30;8.23;;;;;;;14.48;nan;100765.56;6245859;22;20006;-84
2021/08/06 04:05:21;;;;;;;12.10;8.70;;;;;;;14.50;nan;100774.16;6245661;22;20246;-84
2021/08/06 04:07:48;;;;;;;9.18;8.27;;;;;;;14.48;nan;100765.56;6245414;22;20031;-84
2021/08/06 04:10:16;;;;;;;10.30;8.35;;;;;;;14.54;nan;100769.84;6272600;22;20014;-84
2021/08/06 04:12:41;;;;;;;11.95;9.20;;;;;;;14.54;nan;100769.84;6245283;22;20003;-84
2021/08/06 04:15:07;;;;;;;9.43;8.13;;;;;;;14.60;nan;100771.47;6245606;22;20010;-85
2021/08/06 04:17:33;;;;;;;11.63;9.63;;;;;;;14.62;nan;100766.59;6272547;22;20035;-85
2021/08/06 04:19:59;;;;;;;12.02;8.82;;;;;;;14.65;nan;100765.25;6245524;22;20347;-85
2021/08/06 04:22:25;;;;;;;10.77;9.13;;;;;;;14.67;nan;100763.88;6246181;22;20159;-84
2021/08/06 04:24:51;;;;;;;10.45;8.18;;;;;;;14.68;nan;100765.50;6244384;22;20577;-84
2021/08/06 04:27:16;;;;;;;13.13;9.90;;;;;;;14.74;nan;100769.81;6245116;22;20007;-84
2021/08/06 04:29:42;;;;;;;11.43;9.43;;;;;;;14.76;nan;100770.34;6272829;22;20007;-85
2021/08/06 04:32:07;;;;;;;10.90;9.15;;;;;;;14.84;nan;100768.13;6273255;22;20023;-84
2021/08/06 04:34:33;;;;;;;11.15;9.18;;;;;;;14.90;nan;100761.63;6272449;22;20004;-86
2021/08/06 04:36:58;;;;;;;11.38;9.38;;;;;;;14.95;nan;100769.72;6272928;22;20006;-84
2021/08/06 04:39:24;;;;;;;13.52;9.38;;;;;;;14.99;nan;100768.88;6271294;22;20054;-84
2021/08/06 04:41:50;;;;;;;12.30;9.60;;;;;;;15.04;nan;100768.06;6272108;22;20122;-84
2021/08/06 04:44:17;;;;;;;12.95;10.30;;;;;;;15.07;nan;100764.78;6244585;22;20008;-84
2021/08/06 04:46:42;;;;;;;12.30;9.88;;;;;;;15.13;nan;100774.50;6245037;22;20007;-84
2021/08/06 04:49:08;;;;;;;12.48;9.50;;;;;;;15.15;nan;100760.72;6271931;22;20331;-84
2021/08/06 04:51:33;;;;;;;12.27;9.05;;;;;;;15.24;nan;100765.25;6245495;22;20558;-85
2021/08/06 04:53:59;;;;;;;15.18;10.63;;;;;;;15.33;nan;100770.88;6244326;22;19999;-85
2021/08/06 04:56:24;;;;;;;13.75;9.73;;;;;;;15.38;nan;100771.66;6244106;22;20082;-84
2021/08/06 04:58:50;;;;;;;14.70;10.05;;;;;;;15.47;nan;100761.09;6244822;22;20011;-85
2021/08/06 05:01:15;;;;;;;11.57;9.48;;;;;;;15.56;nan;100766.69;6243302;22;20019;-85
2021/08/06 05:03:41;;;;;;;13.27;9.82;;;;;;;15.65;nan;100760.44;6244854;22;20451;-85
2021/08/06 05:06:06;;;;;;;12.38;9.48;;;;;;;15.73;nan;100760.94;6244675;22;20454;-84
2021/08/06 05:08:32;;;;;;;13.07;9.32;;;;;;;15.80;nan;100759.53;6243825;22;20031;-84
2021/08/06 05:10:57;;;;;;;14.73;9.88;;;;;;;15.92;nan;100765.34;6244627;22;20007;-85
2021/08/06 05:13:23;;;;;;;11.68;10.20;;;;;;;16.02;nan;100761.78;6244302;22;20082;-85
2021/08/06 05:15:49;;;;;;;11.02;9.55;;;;;;;16.07;nan;100755.50;6245115;22;20090;-84
2021/08/06 05:18:14;;;;;;;11.02;8.95;;;;;;;16.18;nan;100754.34;6242910;22;20041;-84
2021/08/06 05:20:40;;;;;;;11.77;9.55;;;;;;;16.26;nan;100745.59;6244521;22;20008;-84
2021/08/06 05:23:05;;;;;;;13.73;10.15;;;;;;;16.31;nan;100745.53;6242880;22;20004;-84
2021/08/06 05:25:31;;;;;;;14.63;10.00;;;;;;;16.41;nan;100750.03;6244228;22;20403;-85
2021/08/06 05:27:56;;;;;;;12.00;8.13;;;;;;;16.50;nan;100756.41;6244721;22;20091;-85
2021/08/06 05:30:22;;;;;;;11.05;9.50;;;;;;;16.57;nan;100746.88;6243783;22;20015;-84
2021/08/06 05:32:51;;;;;;;10.02;8.80;;;;;;;16.69;nan;100749.19;6243316;22;20003;-85
2021/08/06 05:35:17;;;;;;;12.77;9.02;;;;;;;16.78;nan;100747.47;6244185;22;20090;-85
2021/08/06 05:37:43;;;;;;;12.68;9.23;;;;;;;16.89;nan;100753.59;6244013;22;20039;-84
2021/08/06 05:40:09;;;;;;;12.70;8.68;;;;;;;17.00;nan;100756.94;6243802;22;20011;-84
2021/08/06 05:42:35;;;;;;;9.77;8.45;;;;;;;17.10;nan;100754.13;6243982;22;20004;-85
2021/08/06 05:45:01;;;;;;;11.07;8.75;;;;;;;17.17;nan;100752.66;6242894;22;20091;-85
2021/08/06 05:47:27;;;;;;;10.77;7.80;;;;;;;17.29;nan;100751.44;6244641;22;20003;-84
2021/08/06 05:49:52;;;;;;;9.45;8.10;;;;;;;17.32;nan;100757.06;6242327;22;20328;-85
2021/08/06 05:52:18;;;;;;;9.73;8.18;;;;;;;17.44;nan;100748.50;6240033;22;20022;-84
2021/08/06 05:54:44;;;;;;;12.85;7.70;;;;;;;17.56;nan;100748.03;6244863;22;20000;-85
2021/08/06 05:57:10;;;;;;;10.77;8.05;;;;;;;17.65;nan;100747.09;6242384;22;20008;-85
2021/08/06 05:59:35;;;;;;;8.55;7.45;;;;;;;17.76;nan;100750.44;6269041;22;20443;-85
2021/08/06 06:02:00;;;;;;;11.63;7.68;;;;;;;17.87;nan;100749.19;6243510;22;20424;-85
2021/08/06 06:04:26;;;;;;;9.85;6.90;;;;;;;18.00;nan;100748.44;6243093;22;20011;-85
2021/08/06 06:06:51;;;;;;;10.00;8.02;;;;;;;17.91;nan;100736.66;6243181;22;20007;-85
2021/08/06 06:09:17;;;;;;;9.60;7.43;;;;;;;18.06;nan;100738.31;6270654;22;20004;-84
2021/08/06 06:11:42;;;;;;;11.88;6.90;;;;;;;18.18;nan;100744.06;6244675;22;20042;-84
2021/08/06 06:14:08;;;;;;;10.35;6.97;;;;;;;18.31;nan;100740.56;6243381;22;19999;-85
2021/08/06 06:16:34;;;;;;;10.35;7.25;;;;;;;18.37;nan;100733.94;6244398;22;20011;-84
2021/08/06 06:18:59;;;;;;;8.95;7.10;;;;;;;18.46;nan;100735.94;6243877;22;20000;-84
2021/08/06 06:21:24;;;;;;;12.60;7.90;;;;;;;18.59;nan;100735.94;6244159;22;20600;-84
2021/08/06 06:23:50;;;;;;;8.75;7.35;;;;;;;18.74;nan;100740.31;6242640;22;20003;-85
2021/08/06 06:26:16;;;;;;;12.57;7.07;;;;;;;18.87;nan;100739.50;6243117;22;20015;-84
2021/08/06 06:28:41;;;;;;;8.82;6.85;;;;;;;19.00;nan;100735.94;6244136;22;20087;-85
2021/08/06 06:31:07;;;;;;;7.88;6.53;;;;;;;19.12;nan;100743.56;6243642;22;20555;-85
2021/08/06 06:33:33;;;;;;;8.18;6.75;;;;;;;19.24;nan;100743.03;6243254;22;20004;-85
2021/08/06 06:35:58;;;;;;;8.43;5.97;;;;;;;19.37;nan;100739.47;6243466;22;20003;-85
2021/08/06 06:38:24;;;;;;;11.15;6.65;;;;;;;19.47;nan;100736.53;6243495;22;20011;-85
2021/08/06 06:40:49;;;;;;;8.05;6.40;;;;;;;19.54;nan;100745.06;6243320;22;20317;-86
2021/08/06 06:43:15;;;;;;;9.68;6.95;;;;;;;19.54;nan;100739.63;6242133;22;20013;-85
2021/08/06 06:45:41;;;;;;;7.88;6.25;;;;;;;19.56;nan;100742.84;6270635;22;20034;-82
2021/08/06 06:48:08;;;;;;;9.18;7.00;;;;;;;19.71;nan;100738.16;6242925;22;20063;-82
2021/08/06 06:50:35;;;;;;;7.95;5.45;;;;;;;19.82;nan;100736.81;6243485;22;20000;-82
2021/08/06 06:53:00;;;;;;;9.93;5.95;;;;;;;19.96;nan;100740.25;6242141;22;19999;-84
2021/08/06 06:55:26;;;;;;;7.53;5.95;;;;;;;20.11;nan;100736.34;6242977;22;20011;-84
2021/08/06 06:57:56;;;;;;;7.57;5.60;;;;;;;20.20;nan;100746.16;6242704;22;20087;-84
2021/08/06 07:00:27;;;;;;;7.00;5.07;;;;;;;20.34;nan;100745.25;6243018;22;20041;-85
2021/08/06 07:02:52;;;;;;;7.95;3.92;;;;;;;20.40;nan;100746.72;6242551;22;20008;-84
2021/08/06 07:05:19;;;;;;;6.72;4.13;;;;;;;20.53;nan;100745.84;6242945;22;20044;-85
2021/08/06 07:07:44;;;;;;;10.27;4.65;;;;;;;20.61;nan;100753.22;6241811;22;20065;-85
2021/08/06 07:10:11;;;;;;;8.25;3.80;;;;;;;20.64;nan;100752.59;6243952;22;20007;-85
2021/08/06 07:12:39;;;;;;;14.15;3.97;;;;;;;20.60;nan;100754.34;6271999;22;19999;-85
2021/08/06 07:15:06;;;;;;;5.95;3.60;;;;;;;20.74;nan;100749.59;6271240;22;20008;-85
2021/08/06 07:17:32;;;;;;;10.15;3.55;;;;;;;20.74;nan;100755.03;6244994;22;20461;-84
2021/08/06 07:19:59;;;;;;;6.57;3.72;;;;;;;20.87;nan;100755.25;6244370;22;20142;-84
2021/08/06 07:22:25;;;;;;;8.52;3.75;;;;;;;20.92;nan;100749.66;6271069;22;20078;-85
2021/08/06 07:24:52;;;;;;;7.78;3.80;;;;;;;20.88;nan;100751.41;6244534;22;20016;-85
2021/08/06 07:27:18;;;;;;;6.20;3.85;;;;;;;20.94;nan;100755.56;6271497;22;19999;-85
2021/08/06 07:29:43;;;;;;;8.07;4.75;;;;;;;21.09;nan;100755.13;6271993;22;20007;-85
2021/08/06 07:32:09;;;;;;;7.40;3.97;;;;;;;21.24;nan;100760.16;6241393;22;20014;-85
2021/08/06 07:34:35;;;;;;;11.65;3.72;;;;;;;21.35;nan;100764.16;6244393;22;20026;-85
2021/08/06 07:37:00;;;;;;;5.28;3.65;;;;;;;21.52;nan;100757.09;6243809;22;20007;-86
2021/08/06 07:39:26;;;;;;;6.30;3.58;;;;;;;21.62;nan;100759.50;6241103;22;20000;-85
2021/08/06 07:41:52;;;;;;;5.07;3.15;;;;;;;21.59;nan;100760.16;6244974;22;20007;-85
2021/08/06 07:44:17;;;;;;;4.90;3.50;;;;;;;21.79;nan;100761.44;6243933;22;20579;-85
2021/08/06 07:46:43;;;;;;;8.20;3.33;;;;;;;21.95;nan;100755.16;6244835;22;20049;-85
2021/08/06 07:49:09;;;;;;;6.55;3.25;;;;;;;22.09;nan;100754.19;6244042;22;20125;-85
2021/08/06 07:51:36;;;;;;;5.63;3.72;;;;;;;22.22;nan;100753.97;6243941;22;20033;-85
2021/08/06 07:54:02;;;;;;;7.43;3.70;;;;;;;22.19;nan;100753.81;6269916;22;20057;-86
2021/08/06 07:56:28;;;;;;;7.22;4.03;;;;;;;22.14;nan;100756.72;6243845;22;20079;-84
2021/08/06 07:58:53;;;;;;;8.85;3.63;;;;;;;22.23;nan;100760.22;6244428;22;20027;-84
2021/08/06 08:01:19;;;;;;;6.75;4.13;;;;;;;22.19;nan;100760.09;6244248;22;20004;-85
2021/08/06 08:03:46;;;;;;;9.35;4.13;;;;;;;21.69;nan;100763.34;6270015;22;20000;-85
2021/08/06 08:06:12;;;;;;;5.40;4.15;;;;;;;21.92;nan;100755.78;6244112;22;20099;-86
2021/08/06 08:08:38;;;;;;;10.35;4.88;;;;;;;22.15;nan;100752.88;6245500;22;20622;-85
2021/08/06 08:11:06;;;;;;;7.13;4.30;;;;;;;22.45;nan;100749.09;6243048;22;20085;-85
2021/08/06 08:13:32;;;;;;;7.28;4.95;;;;;;;22.65;nan;100754.94;6244061;22;20003;-84
2021/08/06 08:15:58;;;;;;;6.88;4.35;;;;;;;22.68;nan;100757.81;6243588;22;20028;-84
2021/08/06 08:18:24;;;;;;;9.48;4.15;;;;;;;22.62;nan;100756.38;6243116;22;20003;-84
2021/08/06 08:20:49;;;;;;;7.32;4.25;;;;;;;22.89;nan;100755.16;6243537;22;20008;-84
2021/08/06 08:23:16;;;;;;;6.05;4.07;;;;;;;23.09;nan;100759.03;6243061;22;20006;-84
2021/08/06 08:25:42;;;;;;;8.00;4.07;;;;;;;23.30;nan;100764.50;6244490;22;20011;-85
2021/08/06 08:28:07;;;;;;;5.68;3.85;;;;;;;23.45;nan;100750.25;6244397;22;20448;-85
2021/08/06 08:30:33;;;;;;;6.35;3.17;;;;;;;23.60;nan;100757.88;6243811;22;20007;-85
2021/08/06 08:32:58;;;;;;;4.05;3.20;;;;;;;23.66;nan;100751.06;6269909;22;20125;-85
2021/08/06 08:35:24;;;;;;;6.40;3.45;;;;;;;23.77;nan;100751.44;6271333;22;20006;-85
2021/08/06 08:37:49;;;;;;;7.25;3.53;;;;;;;23.81;nan;100755.91;6242423;22;20010;-84
2021/08/06 08:40:15;;;;;;;6.72;3.50;;;;;;;23.80;nan;100751.56;6239644;22;20493;-86
2021/08/06 08:42:43;;;;;;;5.75;3.00;;;;;;;24.11;nan;100747.56;6240819;22;20123;-85
2021/08/06 08:45:09;;;;;;;6.18;2.85;;;;;;;24.43;nan;100748.66;6241448;22;20023;-85
2021/08/06 08:47:37;;;;;;;5.78;2.80;;;;;;;24.68;nan;100744.78;6242906;22;20090;-85
2021/08/06 08:50:14;;;;;;;8.43;2.85;;;;;;;24.94;nan;100740.88;6243245;22;20008;-86
2021/08/06 08:52:39;;;;;;;6.75;2.85;;;;;;;24.73;nan;100742.94;6242035;22;20000;-85
2021/08/06 08:55:06;;;;;;;8.02;2.75;;;;;;;24.98;nan;100745.34;6243222;22;20075;-85
2021/08/06 08:57:31;;;;;;;3.50;2.20;;;;;;;25.21;nan;100731.16;6243291;22;20012;-86
2021/08/06 08:59:59;;;;;;;4.10;2.08;;;;;;;25.22;nan;100741.75;6242428;22;20011;-86
2021/08/06 09:02:25;;;;;;;3.95;2.50;;;;;;;25.20;nan;100735.81;6242147;22;20004;-86
2021/08/06 09:05:28;;;;;;;6.50;2.40;;;;;;;24.80;nan;100732.22;6243615;22;20459;-85
2021/08/06 09:07:54;;;;;;;10.18;2.55;;;;;;;25.27;nan;100736.03;6243118;22;20039;-85
2021/08/06 09:10:24;;;;;;;3.92;2.60;;;;;;;25.38;nan;100733.59;6243410;22;20475;-85
2021/08/06 09:12:54;;;;;;;6.85;2.08;;;;;;;25.63;nan;100728.81;6269662;22;20000;-86
2021/08/06 09:15:40;;;;;;;5.10;2.50;;;;;;;25.77;nan;100734.72;6241396;22;20046;-85
2021/08/06 09:18:36;;;;;;;9.02;2.25;;;;;;;25.83;nan;100727.03;6241289;22;20004;-85
2021/08/06 09:21:17;;;;;;;6.78;2.55;;;;;;;26.00;nan;100739.63;6267820;22;20052;-85
2021/08/06 09:23:49;;;;;;;5.28;2.33;;;;;;;26.15;nan;100734.16;6268058;22;20003;-85
2021/08/06 09:26:26;;;;;;;3.25;2.15;;;;;;;26.55;nan;100724.94;6242330;22;20019;-86
2021/08/06 09:29:22;;;;;;;2.70;2.30;;;;;;;26.95;nan;100724.72;6269512;22;20459;-85
2021/08/06 09:31:50;;;;;;;6.97;2.25;;;;;;;27.10;nan;100726.63;6243558;22;20008;-85
2021/08/06 09:34:24;;;;;;;3.03;1.90;;;;;;;26.99;nan;100725.59;6240337;22;20030;-85
2021/08/06 09:37:15;;;;;;;4.93;2.60;;;;;;;27.12;nan;100720.00;6241924;22;20098;-85
2021/08/06 09:39:47;;;;;;;4.45;2.47;;;;;;;27.19;nan;100722.88;6241698;22;20439;-85
2021/08/06 09:42:15;;;;;;;3.67;2.40;;;;;;;27.07;nan;100719.09;6241626;22;20098;-85
2021/08/06 09:44:41;;;;;;;4.47;2.28;;;;;;;27.13;nan;100724.34;6240233;22;20030;-85
2021/08/06 09:47:21;;;;;;;5.22;2.50;;;;;;;27.10;nan;100718.38;6239559;22;20035;-86
2021/08/06 09:49:50;;;;;;;3.72;2.22;;;;;;;27.23;nan;100719.03;6267500;22;20508;-86
2021/08/06 09:52:16;;;;;;;5.88;2.50;;;;;;;27.25;nan;100716.72;6241344;22;20353;-85
2021/08/06 09:54:48;;;;;;;7.07;2.30;;;;;;;27.12;nan;100715.28;6242280;22;20035;-85
2021/08/06 09:57:20;;;;;;;4.45;2.20;;;;;;;27.29;nan;100716.78;6241416;22;20003;-86
2021/08/06 09:59:51;;;;;;;2.63;2.00;;;;;;;27.22;nan;100716.66;6239373;22;20439;-85
2021/08/06 10:02:18;;;;;;;2.20;1.83;;;;;;;27.15;nan;100717.31;6240772;22;20008;-85
2021/08/06 10:04:56;;;;;;;4.72;2.47;;;;;;;27.30;nan;100708.19;6240591;22;20305;-86
2021/08/06 10:07:22;;;;;;;3.42;1.90;;;;;;;27.20;nan;100710.72;6242510;22;20512;-85
2021/08/06 10:09:51;;;;;;;2.25;2.05;;;;;;;27.50;nan;100705.44;6242762;22;20016;-88
2021/08/06 10:12:19;;;;;;;3.88;2.03;;;;;;;27.66;nan;100708.94;6242291;22;20043;-85
2021/08/06 10:14:45;;;;;;;2.08;1.70;;;;;;;27.88;nan;100705.41;6268229;22;20049;-86
2021/08/06 10:17:13;;;;;;;4.22;2.28;;;;;;;27.94;nan;100709.44;6267738;22;20000;-85
2021/08/06 10:19:40;;;;;;;4.32;1.85;;;;;;;28.29;nan;100697.47;6241312;22;20003;-85
2021/08/06 10:22:07;;;;;;;5.82;1.98;;;;;;;28.69;nan;100699.63;6268379;22;20606;-85
2021/08/06 10:24:34;;;;;;;4.63;2.00;;;;;;;28.94;nan;100689.00;6240602;22;20088;-85
2021/08/06 10:27:05;;;;;;;2.50;1.85;;;;;;;29.03;nan;100697.78;6242526;22;20069;-86
2021/08/06 10:29:31;;;;;;;3.25;1.75;;;;;;;28.64;nan;100696.41;6239889;22;20015;-86
2021/08/06 10:32:24;;;;;;;3.40;1.85;;;;;;;28.41;nan;100690.97;6241096;22;20003;-86
2021/08/06 10:35:16;;;;;;;4.50;2.15;;;;;;;28.44;nan;100693.75;6236542;22;20003;-86
2021/08/06 10:37:58;;;;;;;6.32;2.20;;;;;;;28.46;nan;100694.19;6242579;22;20042;-87
2021/08/06 10:40:39;;;;;;;4.38;1.83;;;;;;;28.47;nan;100687.50;6237673;22;20014;-86
2021/08/06 10:43:20;;;;;;;3.67;2.03;;;;;;;28.12;nan;100695.19;6239822;22;20011;-87
2021/08/06 10:45:51;;;;;;;2.28;1.63;;;;;;;28.24;nan;100678.47;6240981;22;20011;-87
2021/08/06 10:48:42;;;;;;;2.90;1.80;;;;;;;28.19;nan;100681.53;6239023;22;20031;-85
2021/08/06 10:51:24;;;;;;;3.30;1.70;;;;;;;28.43;nan;100678.41;6239063;22;20471;-85
2021/08/06 10:53:56;;;;;;;3.50;1.70;;;;;;;28.08;nan;100680.56;6239528;22;20142;-84
2021/08/06 10:56:27;;;;;;;3.28;1.85;;;;;;;28.26;nan;100684.44;6240706;22;20014;-85
2021/08/06 10:59:12;;;;;;;2.75;1.83;;;;;;;28.29;nan;100672.66;6241894;22;20115;-85
2021/08/06 11:01:47;;;;;;;3.72;1.70;;;;;;;28.63;nan;100670.81;6241237;22;20007;-86
2021/08/06 11:04:13;;;;;;;4.05;1.77;;;;;;;28.18;nan;100677.97;6266133;22;20414;-85
2021/08/06 11:06:46;;;;;;;1.98;1.70;;;;;;;28.38;nan;100675.19;6241713;22;20008;-85
2021/08/06 11:09:27;;;;;;;3.13;1.50;;;;;;;28.48;nan;100667.06;6240872;22;20007;-85
2021/08/06 11:11:57;;;;;;;5.85;1.98;;;;;;;28.61;nan;100669.59;6241342;22;20018;-85
2021/08/06 11:14:29;;;;;;;3.03;1.70;;;;;;;28.65;nan;100668.47;6241037;22;20012;-86
2021/08/06 11:17:00;;;;;;;4.30;1.60;;;;;;;28.82;nan;100667.13;6240459;22;20007;-85
2021/08/06 11:19:28;;;;;;;4.25;1.83;;;;;;;28.88;nan;100662.91;6240621;22;20335;-85
2021/08/06 11:21:54;;;;;;;2.42;2.05;;;;;;;28.79;nan;100667.88;6241625;22;20091;-86
2021/08/06 11:24:19;;;;;;;3.55;2.00;;;;;;;28.89;nan;100664.50;6240590;22;20035;-85
2021/08/06 11:26:49;;;;;;;2.83;1.75;;;;;;;29.30;nan;100665.41;6241676;22;20007;-85
2021/08/06 11:29:15;;;;;;;5.15;1.80;;;;;;;29.48;nan;100657.34;6236241;22;20078;-86
2021/08/06 11:31:41;;;;;;;2.67;2.00;;;;;;;29.36;nan;100655.59;6241479;22;20716;-85
2021/08/06 11:34:07;;;;;;;1.70;1.50;;;;;;;29.24;nan;100657.81;6234842;22;20010;-85
2021/08/06 11:36:34;;;;;;;2.90;1.67;;;;;;;28.87;nan;100650.28;6239678;22;20007;-84
2021/08/06 11:39:29;;;;;;;2.40;1.58;;;;;;;29.02;nan;100648.50;6239637;22;20435;-83
2021/08/06 11:41:55;;;;;;;3.22;1.67;;;;;;;28.70;nan;100639.78;6247468;22;20146;-85